sensor_id;sensor_type;location;lat;lon;timestamp;pressure;altitude;pressure_sealevel;temperature;humidity
11223;BME280;5668;52.012;8.724;2022-10-23T00:02:05;100186.03;;;14.42;90.07
11223;BME280;5668;52.012;8.724;2022-10-23T00:04:32;100186.28;;;14.39;90.31
11223;BME280;5668;52.012;8.724;2022-10-23T00:06:59;100185.16;;;14.31;90.79
11223;BME280;5668;52.012;8.724;2022-10-23T00:09:26;100177.72;;;14.27;91.09
11223;BME280;5668;52.012;8.724;2022-10-23T00:11:54;100185.69;;;14.25;91.75
11223;BME280;5668;52.012;8.724;2022-10-23T00:14:24;100185.94;;;14.22;91.95
11223;BME280;5668;52.012;8.724;2022-10-23T00:16:51;100187.88;;;14.20;91.95
11223;BME280;5668;52.012;8.724;2022-10-23T00:19:18;100190.63;;;14.19;92.19
11223;BME280;5668;52.012;8.724;2022-10-23T00:21:45;100194.19;;;14.18;92.72
11223;BME280;5668;52.012;8.724;2022-10-23T00:24:12;100188.44;;;14.24;92.41
11223;BME280;5668;52.012;8.724;2022-10-23T00:26:40;100192.84;;;14.23;92.12
11223;BME280;5668;52.012;8.724;2022-10-23T00:29:07;100186.06;;;14.21;92.57
11223;BME280;5668;52.012;8.724;2022-10-23T00:31:36;100181.28;;;14.26;92.64
11223;BME280;5668;52.012;8.724;2022-10-23T00:34:04;100190.38;;;14.31;92.28
11223;BME280;5668;52.012;8.724;2022-10-23T00:36:33;100190.38;;;14.31;92.02
11223;BME280;5668;52.012;8.724;2022-10-23T00:39:00;100185.28;;;14.30;91.66
11223;BME280;5668;52.012;8.724;2022-10-23T00:41:29;100183.09;;;14.25;91.57
11223;BME280;5668;52.012;8.724;2022-10-23T00:44:04;100178.94;;;14.23;91.19
11223;BME280;5668;52.012;8.724;2022-10-23T00:46:32;100172.06;;;14.22;91.83
11223;BME280;5668;52.012;8.724;2022-10-23T00:49:02;100177.16;;;14.23;92.37
11223;BME280;5668;52.012;8.724;2022-10-23T00:51:32;100183.78;;;14.27;92.40
11223;BME280;5668;52.012;8.724;2022-10-23T00:54:02;100178.25;;;14.30;92.12
11223;BME280;5668;52.012;8.724;2022-10-23T00:56:30;100174.00;;;14.29;91.91
11223;BME280;5668;52.012;8.724;2022-10-23T00:58:59;100167.81;;;14.30;91.82
11223;BME280;5668;52.012;8.724;2022-10-23T01:01:26;100173.03;;;14.30;91.55
11223;BME280;5668;52.012;8.724;2022-10-23T01:03:53;100175.66;;;14.30;91.44
11223;BME280;5668;52.012;8.724;2022-10-23T01:06:29;100184.19;;;14.32;91.84
11223;BME280;5668;52.012;8.724;2022-10-23T01:09:05;100184.91;;;14.34;91.49
11223;BME280;5668;52.012;8.724;2022-10-23T01:11:39;100172.78;;;14.33;91.48
11223;BME280;5668;52.012;8.724;2022-10-23T01:14:15;100174.69;;;14.31;91.37
11223;BME280;5668;52.012;8.724;2022-10-23T01:16:52;100162.56;;;14.30;91.41
11223;BME280;5668;52.012;8.724;2022-10-23T01:19:36;100163.41;;;14.31;91.21
11223;BME280;5668;52.012;8.724;2022-10-23T01:22:17;100167.81;;;14.30;91.02
11223;BME280;5668;52.012;8.724;2022-10-23T01:24:55;100167.81;;;14.30;91.17
11223;BME280;5668;52.012;8.724;2022-10-23T01:27:26;100171.38;;;14.29;91.12
11223;BME280;5668;52.012;8.724;2022-10-23T01:30:04;100161.75;;;14.30;90.95
11223;BME280;5668;52.012;8.724;2022-10-23T01:32:38;100165.31;;;14.29;90.89
11223;BME280;5668;52.012;8.724;2022-10-23T01:35:12;100164.50;;;14.28;90.60
11223;BME280;5668;52.012;8.724;2022-10-23T01:37:42;100166.44;;;14.26;90.75
11223;BME280;5668;52.012;8.724;2022-10-23T01:40:17;100169.72;;;14.28;90.34
11223;BME280;5668;52.012;8.724;2022-10-23T01:42:51;100165.03;;;14.22;89.88
11223;BME280;5668;52.012;8.724;2022-10-23T01:45:23;100161.06;;;14.18;90.27
11223;BME280;5668;52.012;8.724;2022-10-23T01:47:53;100155.00;;;14.18;90.34
11223;BME280;5668;52.012;8.724;2022-10-23T01:50:23;100154.16;;;14.17;90.48
11223;BME280;5668;52.012;8.724;2022-10-23T01:52:51;100151.66;;;14.56;88.43
11223;BME280;5668;52.012;8.724;2022-10-23T01:55:18;100151.88;;;14.33;88.68
11223;BME280;5668;52.012;8.724;2022-10-23T01:57:48;100149.22;;;14.24;89.75
11223;BME280;5668;52.012;8.724;2022-10-23T02:00:18;100157.31;;;14.21;90.30
11223;BME280;5668;52.012;8.724;2022-10-23T02:02:47;100151.56;;;14.17;90.21
11223;BME280;5668;52.012;8.724;2022-10-23T02:05:19;100152.38;;;14.18;90.33
11223;BME280;5668;52.012;8.724;2022-10-23T02:07:47;100149.78;;;14.18;90.20
11223;BME280;5668;52.012;8.724;2022-10-23T02:10:15;100155.13;;;14.16;90.29
11223;BME280;5668;52.012;8.724;2022-10-23T02:12:50;100155.94;;;14.17;90.21
11223;BME280;5668;52.012;8.724;2022-10-23T02:15:27;100152.50;;;14.16;90.53
11223;BME280;5668;52.012;8.724;2022-10-23T02:18:04;100143.72;;;14.17;90.18
11223;BME280;5668;52.012;8.724;2022-10-23T02:20:38;100139.56;;;14.15;90.08
11223;BME280;5668;52.012;8.724;2022-10-23T02:23:16;100141.34;;;14.14;89.77
11223;BME280;5668;52.012;8.724;2022-10-23T02:25:49;100138.91;;;14.13;90.32
11223;BME280;5668;52.012;8.724;2022-10-23T02:28:22;100135.41;;;14.43;89.02
11223;BME280;5668;52.012;8.724;2022-10-23T02:30:51;100122.41;;;14.31;89.16
11223;BME280;5668;52.012;8.724;2022-10-23T02:33:20;100125.81;;;14.22;89.35
11223;BME280;5668;52.012;8.724;2022-10-23T02:35:48;100124.47;;;14.18;89.12
11223;BME280;5668;52.012;8.724;2022-10-23T02:38:33;100116.03;;;14.15;89.36
11223;BME280;5668;52.012;8.724;2022-10-23T02:41:09;100120.72;;;14.11;89.23
11223;BME280;5668;52.012;8.724;2022-10-23T02:43:48;100121.28;;;14.05;89.91
11223;BME280;5668;52.012;8.724;2022-10-23T02:46:23;100112.75;;;14.03;90.13
11223;BME280;5668;52.012;8.724;2022-10-23T02:49:00;100113.69;;;14.02;90.25
11223;BME280;5668;52.012;8.724;2022-10-23T02:51:35;100114.66;;;14.01;90.37
11223;BME280;5668;52.012;8.724;2022-10-23T02:54:12;100112.03;;;14.01;90.53
11223;BME280;5668;52.012;8.724;2022-10-23T02:56:47;100110.13;;;14.03;90.66
11223;BME280;5668;52.012;8.724;2022-10-23T02:59:22;100110.25;;;14.02;90.21
11223;BME280;5668;52.012;8.724;2022-10-23T03:01:59;100101.59;;;14.01;90.43
11223;BME280;5668;52.012;8.724;2022-10-23T03:04:29;100102.53;;;14.00;90.34
11223;BME280;5668;52.012;8.724;2022-10-23T03:06:57;100106.94;;;14.00;90.34
11223;BME280;5668;52.012;8.724;2022-10-23T03:09:25;100092.22;;;13.99;90.05
11223;BME280;5668;52.012;8.724;2022-10-23T03:11:53;100095.94;;;13.96;89.87
11223;BME280;5668;52.012;8.724;2022-10-23T03:14:21;100079.69;;;13.92;89.85
11223;BME280;5668;52.012;8.724;2022-10-23T03:16:48;100087.00;;;13.89;89.69
11223;BME280;5668;52.012;8.724;2022-10-23T03:19:15;100086.28;;;13.87;90.24
11223;BME280;5668;52.012;8.724;2022-10-23T03:21:42;100082.97;;;13.85;90.42
11223;BME280;5668;52.012;8.724;2022-10-23T03:24:09;100080.22;;;13.86;90.75
11223;BME280;5668;52.012;8.724;2022-10-23T03:26:36;100081.88;;;13.87;90.36
11223;BME280;5668;52.012;8.724;2022-10-23T03:29:04;100082.72;;;13.88;90.36
11223;BME280;5668;52.012;8.724;2022-10-23T03:31:32;100081.06;;;13.87;90.24
11223;BME280;5668;52.012;8.724;2022-10-23T03:33:59;100077.50;;;13.88;89.82
11223;BME280;5668;52.012;8.724;2022-10-23T03:36:26;100077.88;;;13.83;90.00
11223;BME280;5668;52.012;8.724;2022-10-23T03:38:53;100071.84;;;13.83;90.14
11223;BME280;5668;52.012;8.724;2022-10-23T03:41:21;100074.97;;;13.77;90.57
11223;BME280;5668;52.012;8.724;2022-10-23T03:43:48;100086.53;;;13.74;91.43
11223;BME280;5668;52.012;8.724;2022-10-23T03:46:15;100085.59;;;13.75;91.55
11223;BME280;5668;52.012;8.724;2022-10-23T03:48:43;100078.81;;;13.73;92.05
11223;BME280;5668;52.012;8.724;2022-10-23T03:51:11;100081.31;;;13.74;92.40
11223;BME280;5668;52.012;8.724;2022-10-23T03:53:38;100081.16;;;13.76;92.83
11223;BME280;5668;52.012;8.724;2022-10-23T03:56:05;100089.69;;;13.78;92.73
11223;BME280;5668;52.012;8.724;2022-10-23T03:58:32;100083.25;;;13.82;92.61
11223;BME280;5668;52.012;8.724;2022-10-23T04:01:00;100079.41;;;13.86;92.24
11223;BME280;5668;52.012;8.724;2022-10-23T04:03:27;100077.50;;;13.88;92.21
11223;BME280;5668;52.012;8.724;2022-10-23T04:05:55;100070.75;;;13.85;92.08
11223;BME280;5668;52.012;8.724;2022-10-23T04:08:22;100067.84;;;13.79;91.15
11223;BME280;5668;52.012;8.724;2022-10-23T04:10:49;100068.38;;;13.73;92.06
11223;BME280;5668;52.012;8.724;2022-10-23T04:13:17;100059.16;;;13.69;91.87
11223;BME280;5668;52.012;8.724;2022-10-23T04:15:47;100057.66;;;13.66;92.60
11223;BME280;5668;52.012;8.724;2022-10-23T04:18:15;100057.66;;;13.66;92.33
11223;BME280;5668;52.012;8.724;2022-10-23T04:20:42;100049.94;;;13.65;92.65
11223;BME280;5668;52.012;8.724;2022-10-23T04:23:10;100053.25;;;13.67;92.41
11223;BME280;5668;52.012;8.724;2022-10-23T04:25:37;100045.97;;;13.70;92.77
11223;BME280;5668;52.012;8.724;2022-10-23T04:28:05;100054.63;;;13.71;92.85
11223;BME280;5668;52.012;8.724;2022-10-23T04:30:32;100052.00;;;13.71;92.53
11223;BME280;5668;52.012;8.724;2022-10-23T04:32:59;100051.06;;;13.72;92.84
11223;BME280;5668;52.012;8.724;2022-10-23T04:35:26;100052.00;;;13.71;92.90
11223;BME280;5668;52.012;8.724;2022-10-23T04:37:53;100054.38;;;13.74;92.64
11223;BME280;5668;52.012;8.724;2022-10-23T04:40:23;100053.13;;;13.78;92.51
11223;BME280;5668;52.012;8.724;2022-10-23T04:42:50;100046.94;;;13.79;92.44
11223;BME280;5668;52.012;8.724;2022-10-23T04:45:17;100045.56;;;13.75;91.39
11223;BME280;5668;52.012;8.724;2022-10-23T04:47:44;100037.44;;;13.68;91.83
11223;BME280;5668;52.012;8.724;2022-10-23T04:50:11;100034.41;;;13.63;92.01
11223;BME280;5668;52.012;8.724;2022-10-23T04:52:39;100029.59;;;13.59;91.74
11223;BME280;5668;52.012;8.724;2022-10-23T04:55:07;100035.06;;;13.55;92.34
11223;BME280;5668;52.012;8.724;2022-10-23T04:57:36;100039.59;;;13.53;93.22
11223;BME280;5668;52.012;8.724;2022-10-23T05:00:06;100042.19;;;13.53;93.36
11223;BME280;5668;52.012;8.724;2022-10-23T05:02:33;100040.28;;;13.55;93.84
11223;BME280;5668;52.012;8.724;2022-10-23T05:05:00;100041.69;;;13.60;93.94
11223;BME280;5668;52.012;8.724;2022-10-23T05:07:27;100046.91;;;13.60;93.49
11223;BME280;5668;52.012;8.724;2022-10-23T05:09:55;100043.59;;;13.57;93.19
11223;BME280;5668;52.012;8.724;2022-10-23T05:12:22;100045.38;;;13.57;93.52
11223;BME280;5668;52.012;8.724;2022-10-23T05:14:51;100048.81;;;13.57;93.86
11223;BME280;5668;52.012;8.724;2022-10-23T05:17:21;100048.81;;;13.57;93.54
11223;BME280;5668;52.012;8.724;2022-10-23T05:19:52;100048.94;;;13.56;93.99
11223;BME280;5668;52.012;8.724;2022-10-23T05:22:20;100049.78;;;13.56;93.64
11223;BME280;5668;52.012;8.724;2022-10-23T05:24:49;100046.22;;;13.57;93.49
11223;BME280;5668;52.012;8.724;2022-10-23T05:27:17;100040.03;;;13.59;93.31
11223;BME280;5668;52.012;8.724;2022-10-23T05:29:44;100034.22;;;13.55;93.42
11223;BME280;5668;52.012;8.724;2022-10-23T05:32:14;100026.53;;;13.53;93.87
11223;BME280;5668;52.012;8.724;2022-10-23T05:34:42;100021.06;;;13.56;94.36
11223;BME280;5668;52.012;8.724;2022-10-23T05:37:12;100016.66;;;13.57;94.54
11223;BME280;5668;52.012;8.724;2022-10-23T05:39:40;100016.91;;;13.54;94.07
11223;BME280;5668;52.012;8.724;2022-10-23T05:42:07;100004.03;;;13.52;94.47
11223;BME280;5668;52.012;8.724;2022-10-23T05:44:34;99997.25;;;13.50;94.48
11223;BME280;5668;52.012;8.724;2022-10-23T05:47:01;99997.25;;;13.50;94.80
11223;BME280;5668;52.012;8.724;2022-10-23T05:49:30;99993.13;;;13.47;94.68
11223;BME280;5668;52.012;8.724;2022-10-23T05:51:57;100002.19;;;13.43;94.45
11223;BME280;5668;52.012;8.724;2022-10-23T05:54:24;99998.75;;;13.43;95.04
11223;BME280;5668;52.012;8.724;2022-10-23T05:56:52;100006.59;;;13.43;95.56
11223;BME280;5668;52.012;8.724;2022-10-23T05:59:19;100008.13;;;13.45;95.55
11223;BME280;5668;52.012;8.724;2022-10-23T06:01:46;100000.41;;;13.44;95.45
11223;BME280;5668;52.012;8.724;2022-10-23T06:04:13;99996.69;;;13.46;95.69
11223;BME280;5668;52.012;8.724;2022-10-23T06:06:43;99997.41;;;13.48;95.59
11223;BME280;5668;52.012;8.724;2022-10-23T06:09:11;99995.75;;;13.47;95.60
11223;BME280;5668;52.012;8.724;2022-10-23T06:11:38;99993.97;;;13.48;96.17
11223;BME280;5668;52.012;8.724;2022-10-23T06:14:05;99997.13;;;13.51;96.33
11223;BME280;5668;52.012;8.724;2022-10-23T06:16:32;99985.03;;;13.50;96.02
11223;BME280;5668;52.012;8.724;2022-10-23T06:18:59;99986.00;;;13.49;96.35
11223;BME280;5668;52.012;8.724;2022-10-23T06:21:27;99977.47;;;13.47;96.68
11223;BME280;5668;52.012;8.724;2022-10-23T06:23:55;99975.44;;;13.51;96.62
11223;BME280;5668;52.012;8.724;2022-10-23T06:26:22;99974.06;;;13.56;96.77
11223;BME280;5668;52.012;8.724;2022-10-23T06:28:49;99973.09;;;13.57;96.87
11223;BME280;5668;52.012;8.724;2022-10-23T06:31:17;99970.34;;;13.59;96.74
11223;BME280;5668;52.012;8.724;2022-10-23T06:33:45;99972.16;;;13.59;96.77
11223;BME280;5668;52.012;8.724;2022-10-23T06:36:12;99969.53;;;13.59;97.05
11223;BME280;5668;52.012;8.724;2022-10-23T06:38:39;99969.25;;;13.62;96.99
11223;BME280;5668;52.012;8.724;2022-10-23T06:41:12;99973.50;;;13.63;97.02
11223;BME280;5668;52.012;8.724;2022-10-23T06:43:39;99967.47;;;13.62;97.26
11223;BME280;5668;52.012;8.724;2022-10-23T06:46:07;99966.38;;;13.65;97.27
11223;BME280;5668;52.012;8.724;2022-10-23T06:48:35;99964.47;;;13.67;97.72
11223;BME280;5668;52.012;8.724;2022-10-23T06:51:05;99962.25;;;13.72;97.71
11223;BME280;5668;52.012;8.724;2022-10-23T06:53:33;99958.94;;;13.70;97.83
11223;BME280;5668;52.012;8.724;2022-10-23T06:56:02;99967.22;;;13.75;97.55
11223;BME280;5668;52.012;8.724;2022-10-23T06:58:32;99969.41;;;13.79;98.03
11223;BME280;5668;52.012;8.724;2022-10-23T07:01:00;99972.84;;;13.80;97.99
11223;BME280;5668;52.012;8.724;2022-10-23T07:03:27;99966.53;;;13.82;97.63
11223;BME280;5668;52.012;8.724;2022-10-23T07:05:54;99972.31;;;13.86;97.23
11223;BME280;5668;52.012;8.724;2022-10-23T07:08:21;99976.72;;;13.85;97.47
11223;BME280;5668;52.012;8.724;2022-10-23T07:10:49;99982.88;;;13.84;98.00
11223;BME280;5668;52.012;8.724;2022-10-23T07:13:16;99979.44;;;13.84;98.04
11223;BME280;5668;52.012;8.724;2022-10-23T07:15:44;99980.16;;;13.86;98.13
11223;BME280;5668;52.012;8.724;2022-10-23T07:18:11;99974.22;;;13.84;98.79
11223;BME280;5668;52.012;8.724;2022-10-23T07:20:40;99971.34;;;13.87;98.82
11223;BME280;5668;52.012;8.724;2022-10-23T07:23:07;99972.31;;;13.86;99.26
11223;BME280;5668;52.012;8.724;2022-10-23T07:25:35;99973.00;;;13.88;99.25
11223;BME280;5668;52.012;8.724;2022-10-23T07:28:03;99969.44;;;13.89;99.31
11223;BME280;5668;52.012;8.724;2022-10-23T07:30:30;99969.13;;;13.92;99.74
11223;BME280;5668;52.012;8.724;2022-10-23T07:32:58;99962.00;;;13.94;99.77
11223;BME280;5668;52.012;8.724;2022-10-23T07:35:26;99957.19;;;13.99;99.43
11223;BME280;5668;52.012;8.724;2022-10-23T07:37:53;99963.22;;;14.00;99.28
11223;BME280;5668;52.012;8.724;2022-10-23T07:40:20;99958.69;;;14.02;99.61
11223;BME280;5668;52.012;8.724;2022-10-23T07:42:48;99960.22;;;14.04;99.74
11223;BME280;5668;52.012;8.724;2022-10-23T07:45:15;99958.28;;;14.06;99.96
11223;BME280;5668;52.012;8.724;2022-10-23T07:47:42;99947.56;;;14.09;99.96
11223;BME280;5668;52.012;8.724;2022-10-23T07:50:12;99947.44;;;14.11;100.00
11223;BME280;5668;52.012;8.724;2022-10-23T07:52:40;99949.91;;;14.12;100.00
11223;BME280;5668;52.012;8.724;2022-10-23T07:55:08;99954.19;;;14.13;100.00
11223;BME280;5668;52.012;8.724;2022-10-23T07:57:37;99951.13;;;14.18;100.00
11223;BME280;5668;52.012;8.724;2022-10-23T08:00:05;99950.72;;;14.22;100.00
11223;BME280;5668;52.012;8.724;2022-10-23T08:02:33;99951.41;;;14.24;100.00
11223;BME280;5668;52.012;8.724;2022-10-23T08:05:00;99956.06;;;14.30;100.00
11223;BME280;5668;52.012;8.724;2022-10-23T08:07:28;99956.31;;;14.37;100.00
11223;BME280;5668;52.012;8.724;2022-10-23T08:09:56;99959.78;;;14.38;100.00
11223;BME280;5668;52.012;8.724;2022-10-23T08:12:23;99950.72;;;14.42;100.00
11223;BME280;5668;52.012;8.724;2022-10-23T08:14:50;99946.16;;;14.44;100.00
11223;BME280;5668;52.012;8.724;2022-10-23T08:17:17;99936.94;;;14.49;100.00
11223;BME280;5668;52.012;8.724;2022-10-23T08:19:44;99938.31;;;14.53;100.00
11223;BME280;5668;52.012;8.724;2022-10-23T08:22:13;99945.06;;;14.56;100.00
11223;BME280;5668;52.012;8.724;2022-10-23T08:24:42;99934.97;;;14.61;100.00
11223;BME280;5668;52.012;8.724;2022-10-23T08:27:09;99936.06;;;14.68;100.00
11223;BME280;5668;52.012;8.724;2022-10-23T08:29:36;99921.06;;;14.70;100.00
11223;BME280;5668;52.012;8.724;2022-10-23T08:32:03;99919.66;;;14.76;100.00
11223;BME280;5668;52.012;8.724;2022-10-23T08:34:31;99918.41;;;14.80;100.00
11223;BME280;5668;52.012;8.724;2022-10-23T08:36:58;99918.66;;;14.86;100.00
11223;BME280;5668;52.012;8.724;2022-10-23T08:39:25;99920.81;;;14.91;100.00
11223;BME280;5668;52.012;8.724;2022-10-23T08:41:54;99924.81;;;14.95;100.00
11223;BME280;5668;52.012;8.724;2022-10-23T08:44:24;99923.41;;;15.00;100.00
11223;BME280;5668;52.012;8.724;2022-10-23T08:47:00;99918.88;;;15.02;100.00
11223;BME280;5668;52.012;8.724;2022-10-23T08:49:36;99924.34;;;15.09;100.00
11223;BME280;5668;52.012;8.724;2022-10-23T08:52:13;99919.63;;;15.13;100.00
11223;BME280;5668;52.012;8.724;2022-10-23T08:54:52;99926.22;;;15.17;100.00
11223;BME280;5668;52.012;8.724;2022-10-23T08:57:26;99919.56;;;15.22;100.00
11223;BME280;5668;52.012;8.724;2022-10-23T09:00:00;99914.88;;;15.26;100.00
11223;BME280;5668;52.012;8.724;2022-10-23T09:02:31;99911.00;;;15.30;100.00
11223;BME280;5668;52.012;8.724;2022-10-23T09:05:01;99915.94;;;15.33;100.00
11223;BME280;5668;52.012;8.724;2022-10-23T09:07:38;99918.94;;;15.38;100.00
11223;BME280;5668;52.012;8.724;2022-10-23T09:10:17;99917.00;;;15.40;100.00
11223;BME280;5668;52.012;8.724;2022-10-23T09:12:47;99918.06;;;15.47;100.00
11223;BME280;5668;52.012;8.724;2022-10-23T09:15:21;99912.81;;;15.47;100.00
11223;BME280;5668;52.012;8.724;2022-10-23T09:17:55;99909.88;;;15.50;100.00
11223;BME280;5668;52.012;8.724;2022-10-23T09:20:26;99907.84;;;15.54;100.00
11223;BME280;5668;52.012;8.724;2022-10-23T09:22:56;99902.59;;;15.54;100.00
11223;BME280;5668;52.012;8.724;2022-10-23T09:25:25;99893.63;;;15.56;100.00
11223;BME280;5668;52.012;8.724;2022-10-23T09:27:56;99900.88;;;15.62;100.00
11223;BME280;5668;52.012;8.724;2022-10-23T09:30:29;99896.28;;;15.64;100.00
11223;BME280;5668;52.012;8.724;2022-10-23T09:32:58;99898.78;;;15.66;100.00
11223;BME280;5668;52.012;8.724;2022-10-23T09:35:27;99892.28;;;15.70;100.00
11223;BME280;5668;52.012;8.724;2022-10-23T09:37:55;99882.31;;;15.73;100.00
11223;BME280;5668;52.012;8.724;2022-10-23T09:40:30;99881.19;;;15.76;100.00
11223;BME280;5668;52.012;8.724;2022-10-23T09:43:03;99879.91;;;15.80;100.00
11223;BME280;5668;52.012;8.724;2022-10-23T09:45:32;99878.78;;;15.82;100.00
11223;BME280;5668;52.012;8.724;2022-10-23T09:48:14;99875.69;;;15.87;100.00
11223;BME280;5668;52.012;8.724;2022-10-23T09:50:49;99880.66;;;15.90;100.00
11223;BME280;5668;52.012;8.724;2022-10-23T09:53:21;99867.91;;;15.95;100.00
11223;BME280;5668;52.012;8.724;2022-10-23T09:55:51;99865.50;;;16.02;100.00
11223;BME280;5668;52.012;8.724;2022-10-23T09:58:26;99863.25;;;16.07;100.00
11223;BME280;5668;52.012;8.724;2022-10-23T10:00:55;99862.63;;;16.13;100.00
11223;BME280;5668;52.012;8.724;2022-10-23T10:03:23;99860.69;;;16.15;100.00
11223;BME280;5668;52.012;8.724;2022-10-23T10:05:57;99859.38;;;16.19;100.00
11223;BME280;5668;52.012;8.724;2022-10-23T10:08:29;99857.44;;;16.21;100.00
11223;BME280;5668;52.012;8.724;2022-10-23T10:11:01;99855.50;;;16.23;100.00
11223;BME280;5668;52.012;8.724;2022-10-23T10:13:55;99862.88;;;16.27;100.00
11223;BME280;5668;52.012;8.724;2022-10-23T10:16:34;99864.88;;;16.34;100.00
11223;BME280;5668;52.012;8.724;2022-10-23T10:19:14;99859.84;;;16.40;100.00
11223;BME280;5668;52.012;8.724;2022-10-23T10:21:52;99846.28;;;16.45;99.87
11223;BME280;5668;52.012;8.724;2022-10-23T10:24:27;99845.94;;;16.48;99.42
11223;BME280;5668;52.012;8.724;2022-10-23T10:27:01;99846.13;;;16.54;99.53
11223;BME280;5668;52.012;8.724;2022-10-23T10:29:44;99838.47;;;16.95;97.67
11223;BME280;5668;52.012;8.724;2022-10-23T10:32:30;99850.44;;;16.89;98.20
11223;BME280;5668;52.012;8.724;2022-10-23T10:35:10;99845.50;;;16.86;98.89
11223;BME280;5668;52.012;8.724;2022-10-23T10:37:53;99840.41;;;16.93;98.84
11223;BME280;5668;52.012;8.724;2022-10-23T10:40:29;99834.53;;;16.99;98.88
11223;BME280;5668;52.012;8.724;2022-10-23T10:43:22;99831.94;;;17.07;98.27
11223;BME280;5668;52.012;8.724;2022-10-23T10:45:56;99828.00;;;17.11;98.14
11223;BME280;5668;52.012;8.724;2022-10-23T10:48:39;99819.31;;;17.19;97.77
11223;BME280;5668;52.012;8.724;2022-10-23T10:51:09;99822.44;;;17.22;96.16
11223;BME280;5668;52.012;8.724;2022-10-23T10:53:51;99811.78;;;17.24;96.41
11223;BME280;5668;52.012;8.724;2022-10-23T10:56:24;99808.69;;;17.28;96.41
11223;BME280;5668;52.012;8.724;2022-10-23T10:58:55;99799.47;;;17.32;96.09
11223;BME280;5668;52.012;8.724;2022-10-23T11:01:29;99796.19;;;17.38;95.86
11223;BME280;5668;52.012;8.724;2022-10-23T11:04:04;99789.28;;;17.46;95.29
11223;BME280;5668;52.012;8.724;2022-10-23T11:06:37;99779.13;;;17.51;95.27
11223;BME280;5668;52.012;8.724;2022-10-23T11:09:13;99782.25;;;17.54;94.77
11223;BME280;5668;52.012;8.724;2022-10-23T11:11:41;99772.88;;;17.60;94.10
11223;BME280;5668;52.012;8.724;2022-10-23T11:14:14;99780.47;;;17.63;93.82
11223;BME280;5668;52.012;8.724;2022-10-23T11:16:47;99779.13;;;17.67;93.78
11223;BME280;5668;52.012;8.724;2022-10-23T11:19:20;99774.53;;;17.69;93.59
11223;BME280;5668;52.012;8.724;2022-10-23T11:21:55;99774.22;;;17.72;93.88
11223;BME280;5668;52.012;8.724;2022-10-23T11:24:49;99766.66;;;17.77;93.77
11223;BME280;5668;52.012;8.724;2022-10-23T11:27:29;99755.66;;;17.82;93.70
11223;BME280;5668;52.012;8.724;2022-10-23T11:30:15;99758.09;;;17.83;93.34
11223;BME280;5668;52.012;8.724;2022-10-23T11:33:11;99753.50;;;17.85;93.45
11223;BME280;5668;52.012;8.724;2022-10-23T11:35:51;99756.28;;;17.92;93.45
11223;BME280;5668;52.012;8.724;2022-10-23T11:38:25;99740.34;;;17.93;93.38
11223;BME280;5668;52.012;8.724;2022-10-23T11:40:56;99731.28;;;17.96;93.44
11223;BME280;5668;52.012;8.724;2022-10-23T11:43:29;99735.72;;;18.03;92.85
11223;BME280;5668;52.012;8.724;2022-10-23T11:45:58;99732.06;;;18.04;93.12
11223;BME280;5668;52.012;8.724;2022-10-23T11:48:39;99723.03;;;18.07;93.07
11223;BME280;5668;52.012;8.724;2022-10-23T11:51:25;99724.16;;;18.12;91.17
11223;BME280;5668;52.012;8.724;2022-10-23T11:54:03;99710.00;;;18.13;91.93
11223;BME280;5668;52.012;8.724;2022-10-23T11:56:31;99715.78;;;18.17;91.77
11223;BME280;5668;52.012;8.724;2022-10-23T11:58:59;99714.78;;;18.18;91.75
11223;BME280;5668;52.012;8.724;2022-10-23T12:01:46;99698.00;;;18.19;91.22
11223;BME280;5668;52.012;8.724;2022-10-23T12:04:22;99699.28;;;18.23;91.17
11223;BME280;5668;52.012;8.724;2022-10-23T12:06:52;99702.91;;;18.22;91.52
11223;BME280;5668;52.012;8.724;2022-10-23T12:09:27;99704.22;;;18.26;91.24
11223;BME280;5668;52.012;8.724;2022-10-23T12:12:15;99698.16;;;18.26;91.13
11223;BME280;5668;52.012;8.724;2022-10-23T12:14:43;99689.25;;;18.27;91.09
11223;BME280;5668;52.012;8.724;2022-10-23T12:17:33;99693.34;;;18.29;90.11
11223;BME280;5668;52.012;8.724;2022-10-23T12:20:17;99686.44;;;18.28;90.35
11223;BME280;5668;52.012;8.724;2022-10-23T12:22:53;99681.66;;;18.32;89.58
11223;BME280;5668;52.012;8.724;2022-10-23T12:25:32;99673.94;;;18.30;89.29
11223;BME280;5668;52.012;8.724;2022-10-23T12:28:06;99652.91;;;18.30;89.00
11223;BME280;5668;52.012;8.724;2022-10-23T12:30:42;99660.63;;;18.32;88.94
11223;BME280;5668;52.012;8.724;2022-10-23T12:33:18;99645.16;;;18.29;88.04
11223;BME280;5668;52.012;8.724;2022-10-23T12:36:16;99642.25;;;18.24;87.61
11223;BME280;5668;52.012;8.724;2022-10-23T12:38:48;99634.81;;;18.27;87.69
11223;BME280;5668;52.012;8.724;2022-10-23T12:41:18;99647.19;;;18.27;87.73
11223;BME280;5668;52.012;8.724;2022-10-23T12:43:52;99637.44;;;18.27;87.73
11223;BME280;5668;52.012;8.724;2022-10-23T12:46:30;99627.75;;;18.28;87.75
11223;BME280;5668;52.012;8.724;2022-10-23T12:48:59;99634.66;;;18.29;87.58
11223;BME280;5668;52.012;8.724;2022-10-23T12:51:31;99625.13;;;18.28;87.78
11223;BME280;5668;52.012;8.724;2022-10-23T12:53:59;99617.22;;;18.28;87.75
11223;BME280;5668;52.012;8.724;2022-10-23T12:56:33;99614.41;;;18.29;87.77
11223;BME280;5668;52.012;8.724;2022-10-23T12:59:00;99613.25;;;18.32;87.70
11223;BME280;5668;52.012;8.724;2022-10-23T13:01:31;99607.34;;;18.30;87.49
11223;BME280;5668;52.012;8.724;2022-10-23T13:04:01;99610.81;;;18.30;87.63
11223;BME280;5668;52.012;8.724;2022-10-23T13:06:32;99600.75;;;18.34;87.64
11223;BME280;5668;52.012;8.724;2022-10-23T13:09:00;99596.31;;;18.34;87.24
11223;BME280;5668;52.012;8.724;2022-10-23T13:11:27;99598.31;;;18.32;87.61
11223;BME280;5668;52.012;8.724;2022-10-23T13:13:55;99595.84;;;18.31;87.86
11223;BME280;5668;52.012;8.724;2022-10-23T13:16:24;99589.41;;;18.33;87.88
11223;BME280;5668;52.012;8.724;2022-10-23T13:18:52;99601.38;;;18.36;87.99
11223;BME280;5668;52.012;8.724;2022-10-23T13:21:21;99593.50;;;18.36;88.08
11223;BME280;5668;52.012;8.724;2022-10-23T13:23:50;99599.56;;;18.36;87.88
11223;BME280;5668;52.012;8.724;2022-10-23T13:26:29;99584.63;;;18.37;87.90